createdAt,value
2022-10-22T00:00:46.548Z,101007.25
2022-10-22T00:03:14.450Z,101013.56
2022-10-22T00:05:41.864Z,101012.72
2022-10-22T00:08:09.267Z,101014.66
2022-10-22T00:10:38.425Z,101011.91
2022-10-22T00:13:05.982Z,101003.44
2022-10-22T00:15:33.384Z,101013.56
2022-10-22T00:18:00.759Z,101016.06
2022-10-22T00:20:28.167Z,101009.75
2022-10-22T00:22:55.593Z,101005.34
2022-10-22T00:25:23.084Z,100999.84
2022-10-22T00:27:50.600Z,100999.84
2022-10-22T00:30:18.047Z,100982.84
2022-10-22T00:32:45.521Z,100977.94
2022-10-22T00:35:12.936Z,100977.94
2022-10-22T00:37:40.327Z,100967.84
2022-10-22T00:40:09.614Z,100965.91
2022-10-22T00:42:40.023Z,100955.78
2022-10-22T00:45:10.198Z,100946.16
2022-10-22T00:47:41.732Z,100950.81
2022-10-22T00:50:17.888Z,100951.88
2022-10-22T00:52:45.343Z,100936.25
2022-10-22T00:55:12.740Z,100928.03
2022-10-22T00:57:40.087Z,100934.38
2022-10-22T01:00:09.342Z,100946.75
2022-10-22T01:02:39.728Z,100948.91
2022-10-22T01:05:07.656Z,100944.47
2022-10-22T01:07:47.252Z,100940.91
2022-10-22T01:10:17.688Z,100939.59
2022-10-22T01:13:05.925Z,100938.19
2022-10-22T01:15:59.328Z,100936.59
2022-10-22T01:18:34.003Z,100935.78
2022-10-22T01:21:45.955Z,100936.84
2022-10-22T01:24:42.486Z,100924.84
2022-10-22T01:27:38.045Z,100917.66
2022-10-22T01:30:10.056Z,100911.13
2022-10-22T01:32:50.513Z,100912.47
2022-10-22T01:35:24.538Z,100906.63
2022-10-22T01:37:57.499Z,100909.38
2022-10-22T01:40:25.123Z,100899.47
2022-10-22T01:42:59.846Z,100899.25
2022-10-22T01:45:28.807Z,100908.03
2022-10-22T01:47:59.260Z,100894.34
2022-10-22T01:50:48.230Z,100898.19
2022-10-22T01:56:22.548Z,100889.69
2022-10-22T01:59:13.223Z,100884.22
2022-10-22T02:02:18.721Z,100894.94
2022-10-22T02:04:50.634Z,100889.81
2022-10-22T02:07:19.219Z,100869.81
2022-10-22T02:09:46.671Z,100867.88
2022-10-22T02:12:14.102Z,100873.84
2022-10-22T02:14:44.362Z,100871.94
2022-10-22T02:17:16.148Z,100876.34
2022-10-22T02:20:06.333Z,100887.53
2022-10-22T02:22:33.682Z,100882.06
2022-10-22T02:25:01.211Z,100867.28
2022-10-22T02:27:45.603Z,100849.19
2022-10-22T02:32:54.925Z,100847.31
2022-10-22T02:35:23.286Z,100860.13
2022-10-22T02:37:50.716Z,100850.03
2022-10-22T02:40:18.143Z,100839.91
2022-10-22T02:42:46.603Z,100825.97
2022-10-22T02:45:14.200Z,100821.31
2022-10-22T02:47:41.634Z,100816.91
2022-10-22T02:50:10.314Z,100826.44
2022-10-22T02:52:38.522Z,100821.78
2022-10-22T02:55:06.660Z,100813.84
2022-10-22T02:57:34.132Z,100811.91
2022-10-22T03:00:01.545Z,100812.97
2022-10-22T03:02:28.958Z,100819.31
2022-10-22T03:04:56.336Z,100812.97
2022-10-22T03:07:23.761Z,100816.81
2022-10-22T03:09:51.255Z,100807.50
2022-10-22T03:12:18.707Z,100809.19
2022-10-22T03:14:46.119Z,100810.00
2022-10-22T03:17:14.075Z,100808.94
2022-10-22T03:19:42.205Z,100805.84
2022-10-22T03:22:34.802Z,100814.09
2022-10-22T03:25:05.174Z,100803.72
2022-10-22T03:27:32.563Z,100799.06
2022-10-22T03:29:59.942Z,100793.00
2022-10-22T03:32:27.291Z,100784.19
2022-10-22T03:34:54.632Z,100779.53
2022-10-22T03:37:22.509Z,100775.16
2022-10-22T03:39:49.926Z,100774.91
2022-10-22T03:42:17.403Z,100777.88
2022-10-22T03:44:44.812Z,100781.78
2022-10-22T03:47:12.214Z,100794.06
2022-10-22T03:49:39.596Z,100783.94
2022-10-22T03:52:08.204Z,100787.75
2022-10-22T03:54:35.969Z,100788.59
2022-10-22T03:57:04.478Z,100786.69
2022-10-22T03:59:39.426Z,100791.59
2022-10-22T04:02:06.910Z,100785.00
2022-10-22T04:04:34.331Z,100789.66
2022-10-22T04:07:01.795Z,100800.97
2022-10-22T04:09:32.483Z,100797.41
2022-10-22T04:12:00.498Z,100795.50
2022-10-22T04:14:27.920Z,100793.56
2022-10-22T04:16:55.330Z,100786.44
2022-10-22T04:19:22.694Z,100787.50
2022-10-22T04:21:50.110Z,100797.06
2022-10-22T04:24:17.470Z,100790.50
2022-10-22T04:26:44.856Z,100781.44
2022-10-22T04:29:15.921Z,100788.84
2022-10-22T04:31:43.834Z,100796.81
2022-10-22T04:34:11.218Z,100783.13
2022-10-22T04:36:38.695Z,100798.47
2022-10-22T04:39:06.109Z,100789.44
2022-10-22T04:41:35.621Z,100785.88
2022-10-22T04:44:03.166Z,100779.28
2022-10-22T04:46:31.776Z,100762.84
2022-10-22T04:48:59.139Z,100765.00
2022-10-22T04:51:26.787Z,100762.03
2022-10-22T04:53:54.410Z,100757.84
2022-10-22T04:56:24.844Z,100753.22
2022-10-22T04:58:57.037Z,100754.53
2022-10-22T05:01:29.020Z,100768.56
2022-10-22T05:03:57.280Z,100754.41
2022-10-22T05:06:24.861Z,100755.72
2022-10-22T05:08:53.828Z,100754.88
2022-10-22T05:11:22.833Z,100763.09
2022-10-22T05:13:50.558Z,100756.78
2022-10-22T05:16:17.945Z,100762.50
2022-10-22T05:18:45.941Z,100769.66
2022-10-22T05:21:15.022Z,100748.81
2022-10-22T05:23:42.984Z,100757.63
2022-10-22T05:26:11.346Z,100763.94
2022-10-22T05:28:38.861Z,100749.41
2022-10-22T05:31:06.964Z,100725.59
2022-10-22T05:33:34.481Z,100736.22
2022-10-22T05:36:02.248Z,100738.94
2022-10-22T05:38:29.705Z,100755.38
2022-10-22T05:41:01.688Z,100753.22
2022-10-22T05:43:29.269Z,100752.13
2022-10-22T05:45:56.730Z,100761.44
2022-10-22T05:48:24.182Z,100755.97
2022-10-22T05:50:51.658Z,100753.81
2022-10-22T05:53:21.904Z,100768.56
2022-10-22T05:55:49.392Z,100764.78
2022-10-22T05:58:16.740Z,100762.03
2022-10-22T06:00:44.138Z,100772.47
2022-10-22T06:03:11.540Z,100771.66
2022-10-22T06:05:39.007Z,100776.78
2022-10-22T06:08:06.389Z,100791.06
2022-10-22T06:10:33.735Z,100793.00
2022-10-22T06:13:03.216Z,100785.00
2022-10-22T06:15:30.616Z,100783.94
2022-10-22T06:17:58.051Z,100800.38
2022-10-22T06:20:25.494Z,100803.13
2022-10-22T06:22:52.866Z,100794.91
2022-10-22T06:25:20.276Z,100791.94
2022-10-22T06:27:52.823Z,100815.50
2022-10-22T06:30:22.991Z,100814.41
2022-10-22T06:32:50.345Z,100809.75
2022-10-22T06:35:17.814Z,100807.03
2022-10-22T06:37:47.386Z,100810.84
2022-10-22T06:40:16.386Z,100818.22
2022-10-22T06:42:43.911Z,100820.16
2022-10-22T06:45:11.403Z,100816.31
2022-10-22T06:47:39.122Z,100811.69
2022-10-22T06:50:07.218Z,100827.03
2022-10-22T06:52:34.631Z,100826.22
2022-10-22T06:55:02.063Z,100837.16
2022-10-22T06:57:32.958Z,100820.97
2022-10-22T07:00:00.402Z,100821.78
2022-10-22T07:02:27.829Z,100829.41
2022-10-22T07:04:55.283Z,100830.00
2022-10-22T07:07:22.875Z,100829.41
2022-10-22T07:09:51.463Z,100836.59
2022-10-22T07:12:18.960Z,100834.66
2022-10-22T07:14:46.300Z,100834.91
2022-10-22T07:17:13.629Z,100852.19
2022-10-22T07:19:41.012Z,100843.13
2022-10-22T07:22:08.399Z,100842.06
2022-10-22T07:24:36.239Z,100838.81
2022-10-22T07:27:09.406Z,100838.22
2022-10-22T07:29:39.099Z,100842.41
2022-10-22T07:32:06.604Z,100858.84
2022-10-22T07:34:34.229Z,100855.25
2022-10-22T07:37:01.711Z,100855.25
2022-10-22T07:39:29.142Z,100856.09
2022-10-22T07:41:56.500Z,100860.50
2022-10-22T07:44:23.837Z,100868.94
2022-10-22T07:46:51.238Z,100876.09
2022-10-22T07:49:18.622Z,100871.22
2022-10-22T07:51:46.088Z,100870.84
2022-10-22T07:54:13.536Z,100873.94
2022-10-22T07:56:40.915Z,100872.28
2022-10-22T07:59:08.311Z,100878.59
2022-10-22T08:01:35.702Z,100867.66
2022-10-22T08:04:03.067Z,100860.50
2022-10-22T08:06:30.434Z,100868.47
2022-10-22T08:08:57.910Z,100862.75
2022-10-22T08:11:25.330Z,100881.06
2022-10-22T08:13:53.271Z,100876.69
2022-10-22T08:16:20.651Z,100880.25
2022-10-22T08:18:48.011Z,100873.94
2022-10-22T08:21:15.597Z,100884.91
2022-10-22T08:23:43.403Z,100888.72
2022-10-22T08:26:11.112Z,100883.00
2022-10-22T08:28:38.532Z,100886.56
2022-10-22T08:31:07.464Z,100892.88
2022-10-22T08:33:34.902Z,100881.06
2022-10-22T08:36:02.379Z,100883.81
2022-10-22T08:38:31.496Z,100889.28
2022-10-22T08:41:06.894Z,100881.06
2022-10-22T08:43:55.703Z,100888.22
2022-10-22T08:46:52.549Z,100895.63
2022-10-22T08:49:24.645Z,100901.09
2022-10-22T08:51:52.226Z,100899.19
2022-10-22T08:54:25.430Z,100900.25
2022-10-22T08:57:23.902Z,100897.50
2022-10-22T09:00:29.574Z,100905.72
2022-10-22T09:03:02.670Z,100908.25
2022-10-22T09:05:56.158Z,100913.13
2022-10-22T09:08:23.567Z,100914.81
2022-10-22T09:10:53.517Z,100907.41
2022-10-22T09:13:21.429Z,100911.22
2022-10-22T09:16:01.775Z,100909.56
2022-10-22T09:18:36.887Z,100906.59
2022-10-22T09:21:13.153Z,100918.59
2022-10-22T09:23:59.211Z,100917.78
2022-10-22T09:26:27.699Z,100917.78
2022-10-22T09:28:55.176Z,100915.88
2022-10-22T09:31:22.826Z,100921.94
2022-10-22T09:33:50.707Z,100920.28
2022-10-22T09:36:20.980Z,100918.59
2022-10-22T09:38:50.431Z,100907.66
2022-10-22T09:41:18.648Z,100913.13
2022-10-22T09:43:49.294Z,100919.69
2022-10-22T09:46:19.333Z,100923.03
2022-10-22T09:49:04.770Z,100931.25
2022-10-22T09:51:53.952Z,100930.16
2022-10-22T09:54:33.171Z,100924.66
2022-10-22T09:57:04.678Z,100927.41
2022-10-22T09:59:34.068Z,100939.47
2022-10-22T10:02:20.166Z,100926.59
2022-10-22T10:04:55.923Z,100924.66
2022-10-22T10:07:25.100Z,100936.72
2022-10-22T10:09:53.675Z,100934.81
2022-10-22T10:12:42.462Z,100930.38
2022-10-22T10:15:29.037Z,100942.22
2022-10-22T10:18:01.929Z,100946.00
2022-10-22T10:20:50.010Z,100944.94
2022-10-22T10:23:23.118Z,100954.00
2022-10-22T10:26:00.531Z,100952.31
2022-10-22T10:28:34.430Z,100957.78
2022-10-22T10:31:22.887Z,100962.22
2022-10-22T10:34:13.049Z,100958.66
2022-10-22T10:36:46.346Z,100950.44
2022-10-22T10:39:28.064Z,100952.31
2022-10-22T10:42:22.887Z,100953.16
2022-10-22T10:45:11.336Z,100954.00
2022-10-22T10:47:50.572Z,100947.69
2022-10-22T10:50:29.771Z,100940.53
2022-10-22T10:53:19.587Z,100946.84
2022-10-22T10:56:06.937Z,100944.09
2022-10-22T10:58:49.490Z,100960.28
2022-10-22T11:01:25.732Z,100951.25
2022-10-22T11:03:55.787Z,100948.50
2022-10-22T11:06:25.542Z,100953.16
2022-10-22T11:09:01.196Z,100952.31
2022-10-22T11:11:34.728Z,100965.78
2022-10-22T11:14:24.215Z,100966.00
2022-10-22T11:16:54.967Z,100967.44
2022-10-22T11:19:50.388Z,100963.03
2022-10-22T11:22:24.549Z,100967.44
2022-10-22T11:24:56.395Z,100965.53
2022-10-22T11:27:45.839Z,100964.13
2022-10-22T11:30:17.783Z,100964.94
2022-10-22T11:32:47.692Z,100959.47
2022-10-22T11:35:17.138Z,100962.22
2022-10-22T11:37:44.627Z,100962.22
2022-10-22T11:40:21.830Z,100969.59
2022-10-22T11:42:57.407Z,100961.38
2022-10-22T11:45:24.722Z,100965.78
2022-10-22T11:48:10.206Z,100960.53
2022-10-22T11:50:44.376Z,100957.78
2022-10-22T11:53:14.488Z,100957.56
2022-10-22T11:55:51.778Z,100957.56
2022-10-22T11:58:35.685Z,100963.28
2022-10-22T12:01:02.991Z,100966.59
2022-10-22T12:03:33.072Z,100960.53
2022-10-22T12:06:12.310Z,100973.16
2022-10-22T12:08:49.003Z,100973.16
2022-10-22T12:11:19.366Z,100974.00
2022-10-22T12:14:00.289Z,100974.22
2022-10-22T12:16:54.731Z,100985.78
2022-10-22T12:19:23.743Z,100987.69
2022-10-22T12:22:13.519Z,100981.38
2022-10-22T12:24:42.936Z,100986.63
2022-10-22T12:27:26.018Z,100980.56
2022-10-22T12:29:57.803Z,100977.81
2022-10-22T12:32:38.694Z,100982.44
2022-10-22T12:35:09.046Z,100982.44
2022-10-22T12:37:37.190Z,100995.09
2022-10-22T12:40:27.374Z,100996.75
2022-10-22T12:43:01.866Z,100993.16
2022-10-22T12:45:30.792Z,100984.13
2022-10-22T12:47:59.690Z,100978.66
2022-10-22T12:50:58.284Z,100981.38
2022-10-22T12:53:28.395Z,100985.78
2022-10-22T12:55:56.721Z,100974.81
2022-10-22T12:58:29.093Z,100979.47
2022-10-22T13:01:02.110Z,100983.88
2022-10-22T13:03:35.496Z,100978.41
2022-10-22T13:06:18.359Z,100973.16
2022-10-22T13:08:55.579Z,100981.16
2022-10-22T13:11:23.750Z,100972.06
2022-10-22T13:13:51.232Z,100976.72
2022-10-22T13:16:25.841Z,100974.22
2022-10-22T13:18:53.561Z,100983.88
2022-10-22T13:21:37.212Z,100984.94
2022-10-22T13:24:22.948Z,100984.94
2022-10-22T13:26:53.859Z,100988.50
2022-10-22T13:29:21.997Z,100986.63
2022-10-22T13:31:51.316Z,100984.13
2022-10-22T13:34:23.753Z,100992.34
2022-10-22T13:36:51.428Z,100992.13
2022-10-22T13:39:23.881Z,100985.78
2022-10-22T13:41:51.467Z,100986.41
2022-10-22T13:44:19.747Z,100990.19
2022-10-22T13:46:47.629Z,100987.47
2022-10-22T13:49:19.887Z,100993.16
2022-10-22T13:51:47.327Z,100989.38
2022-10-22T13:56:46.547Z,100985.78
2022-10-22T13:59:15.380Z,100994.84
2022-10-22T14:01:44.711Z,100983.88
2022-10-22T14:04:12.838Z,100988.50
2022-10-22T14:06:40.230Z,100993.75
2022-10-22T14:09:11.990Z,100999.47
2022-10-22T14:11:39.516Z,100991.25
2022-10-22T14:14:09.185Z,100985.78
2022-10-22T14:16:36.710Z,100981.38
2022-10-22T14:19:04.151Z,100980.28
2022-10-22T14:21:34.251Z,100981.38
2022-10-22T14:24:01.968Z,100981.16
2022-10-22T14:26:33.082Z,100978.66
2022-10-22T14:29:16.232Z,100986.63
2022-10-22T14:31:44.499Z,100995.69
2022-10-22T14:34:13.358Z,100995.69
2022-10-22T14:36:43.566Z,100994.84
2022-10-22T14:39:11.779Z,100994.84
2022-10-22T14:41:39.250Z,100988.50
2022-10-22T14:44:06.661Z,101003.06
2022-10-22T14:46:34.193Z,100994.00
2022-10-22T14:49:02.841Z,101000.34
2022-10-22T14:51:30.235Z,101008.56
2022-10-22T14:53:57.673Z,101004.97
2022-10-22T14:56:25.124Z,101011.28
2022-10-22T14:58:53.709Z,101004.13
2022-10-22T15:01:21.108Z,101010.44
2022-10-22T15:03:48.527Z,101012.94
2022-10-22T15:06:16.008Z,101012.13
2022-10-22T15:08:44.894Z,101014.84
2022-10-22T15:11:13.620Z,101007.69
2022-10-22T15:13:42.077Z,101015.91
2022-10-22T15:16:10.447Z,101009.63
2022-10-22T15:18:37.924Z,101014.84
2022-10-22T15:21:13.385Z,101013.78
2022-10-22T15:23:40.806Z,101005.81
2022-10-22T15:26:08.904Z,101001.16
2022-10-22T15:28:37.071Z,101006.63
2022-10-22T15:31:04.482Z,101014.84
2022-10-22T15:33:31.864Z,101006.88
2022-10-22T15:35:59.399Z,101012.13
2022-10-22T15:41:05.444Z,101007.97
2022-10-22T15:43:34.236Z,101011.28
2022-10-22T15:46:19.953Z,101014.84
2022-10-22T15:48:47.378Z,101017.59
2022-10-22T15:51:16.352Z,101025.81
2022-10-22T15:53:43.880Z,101026.88
2022-10-22T15:56:14.068Z,101026.88
2022-10-22T15:58:41.485Z,101029.38
2022-10-22T16:01:10.640Z,101035.94
2022-10-22T16:03:41.023Z,101037.59
2022-10-22T16:06:09.324Z,101043.31
2022-10-22T16:08:37.093Z,101042.25
2022-10-22T16:11:04.779Z,101053.22
2022-10-22T16:13:32.180Z,101059.53
2022-10-22T16:16:03.780Z,101056.78
2022-10-22T16:18:31.136Z,101056.53
2022-10-22T16:20:58.938Z,101063.94
2022-10-22T16:23:44.747Z,101073.47
2022-10-22T16:26:13.949Z,101075.13
2022-10-22T16:28:41.807Z,101079.56
2022-10-22T16:31:10.556Z,101081.69
2022-10-22T16:33:47.791Z,101077.28
2022-10-22T16:36:18.064Z,101084.69
2022-10-22T16:38:46.077Z,101085.50
2022-10-22T16:41:16.816Z,101091.81
2022-10-22T16:43:46.963Z,101095.63
2022-10-22T16:46:15.353Z,101095.38
2022-10-22T16:48:50.255Z,101098.63
2022-10-22T16:51:19.461Z,101113.50
2022-10-22T16:53:46.961Z,101106.97
2022-10-22T16:56:15.216Z,101112.69
2022-10-22T16:58:49.389Z,101110.41
2022-10-22T17:01:18.254Z,101123.03
2022-10-22T17:03:45.877Z,101121.13
2022-10-22T17:06:13.413Z,101130.41
2022-10-22T17:08:41.191Z,101132.31
2022-10-22T17:11:12.843Z,101130.66
2022-10-22T17:13:40.853Z,101131.50
2022-10-22T17:16:10.168Z,101137.56
2022-10-22T17:18:38.515Z,101141.97
2022-10-22T17:21:06.721Z,101133.16
2022-10-22T17:23:34.092Z,101135.06
2022-10-22T17:26:08.638Z,101140.53
2022-10-22T17:28:36.511Z,101150.91
2022-10-22T17:31:03.792Z,101153.41
2022-10-22T17:33:31.559Z,101158.28
2022-10-22T17:35:59.015Z,101164.84
2022-10-22T17:38:26.529Z,101165.69
2022-10-22T17:40:53.980Z,101168.44
2022-10-22T17:43:21.433Z,101173.91
2022-10-22T17:45:48.827Z,101166.97
2022-10-22T17:48:16.649Z,101166.97
2022-10-22T17:50:48.255Z,101180.69
2022-10-22T17:53:18.194Z,101183.78
2022-10-22T17:55:45.500Z,101180.81
2022-10-22T17:58:12.962Z,101184.88
2022-10-22T18:00:40.349Z,101189.50
2022-10-22T18:03:08.790Z,101186.75
2022-10-22T18:05:36.196Z,101196.06
2022-10-22T18:08:07.599Z,101201.75
2022-10-22T18:10:39.438Z,101219.28
2022-10-22T18:13:09.489Z,101225.59
2022-10-22T18:15:39.484Z,101222.84
2022-10-22T18:18:06.953Z,101225.81
2022-10-22T18:20:34.364Z,101222.25
2022-10-22T18:23:03.632Z,101225.59
2022-10-22T18:25:31.819Z,101225.81
2022-10-22T18:27:59.334Z,101215.97
2022-10-22T18:30:26.686Z,101217.59
2022-10-22T18:32:54.157Z,101226.91
2022-10-22T18:35:21.556Z,101233.22
2022-10-22T18:37:49.017Z,101226.06
2022-10-22T18:40:16.516Z,101240.63
2022-10-22T18:42:44.827Z,101237.00
2022-10-22T18:45:12.451Z,101243.34
2022-10-22T18:47:41.284Z,101241.44
2022-10-22T18:50:09.389Z,101239.75
2022-10-22T18:52:36.738Z,101242.50
2022-10-22T18:55:04.601Z,101244.41
2022-10-22T18:57:32.311Z,101247.97
2022-10-22T19:00:02.192Z,101248.84
2022-10-22T19:02:30.016Z,101245.47
2022-10-22T19:04:57.386Z,101250.13
2022-10-22T19:07:24.789Z,101255.59
2022-10-22T19:09:52.184Z,101260.25
2022-10-22T19:12:21.636Z,101254.75
2022-10-22T19:14:49.698Z,101259.16
2022-10-22T19:17:17.125Z,101264.63
2022-10-22T19:19:45.074Z,101266.56
2022-10-22T19:22:12.983Z,101266.56
2022-10-22T19:24:40.439Z,101279.19
2022-10-22T19:27:08.602Z,101288.47
2022-10-22T19:29:35.963Z,101283.00
2022-10-22T19:32:03.393Z,101285.97
2022-10-22T19:34:30.826Z,101290.16
2022-10-22T19:36:58.356Z,101291.22
2022-10-22T19:39:25.712Z,101291.22
2022-10-22T19:41:53.102Z,101293.94
2022-10-22T19:44:20.480Z,101293.72
2022-10-22T19:46:47.918Z,101301.13
2022-10-22T19:49:18.948Z,101302.16
2022-10-22T19:51:49.415Z,101301.94
2022-10-22T19:54:18.819Z,101316.69
2022-10-22T19:56:46.529Z,101313.72
2022-10-22T19:59:15.110Z,101321.34
2022-10-22T20:01:42.489Z,101327.66
2022-10-22T20:04:11.884Z,101322.44
2022-10-22T20:06:39.272Z,101327.66
2022-10-22T20:09:06.707Z,101328.50
2022-10-22T20:11:34.122Z,101321.13
2022-10-22T20:14:01.593Z,101313.94
2022-10-22T20:16:30.122Z,101324.69
2022-10-22T20:19:01.624Z,101331.25
2022-10-22T20:21:29.332Z,101331.03
2022-10-22T20:23:57.455Z,101331.25
2022-10-22T20:26:27.902Z,101325.78
2022-10-22T20:28:57.196Z,101338.59
2022-10-22T20:31:27.077Z,101339.47
2022-10-22T20:33:56.796Z,101336.94
2022-10-22T20:36:24.673Z,101332.31
2022-10-22T20:41:22.822Z,101343.25
2022-10-22T20:43:53.299Z,101339.47
2022-10-22T20:46:25.608Z,101340.75
2022-10-22T20:48:54.350Z,101349.81
2022-10-22T20:51:21.716Z,101350.66
2022-10-22T20:53:49.170Z,101360.19
2022-10-22T20:56:16.843Z,101359.69
2022-10-22T20:58:48.265Z,101361.84
2022-10-22T21:01:22.211Z,101363.53
2022-10-22T21:03:50.904Z,101369.00
2022-10-22T21:06:22.954Z,101369.81
2022-10-22T21:08:50.902Z,101374.69
2022-10-22T21:11:18.709Z,101382.91
2022-10-22T21:14:05.367Z,101382.09
2022-10-22T21:16:32.841Z,101388.41
2022-10-22T21:19:00.272Z,101388.63
2022-10-22T21:21:27.721Z,101376.63
2022-10-22T21:23:55.134Z,101376.84
2022-10-22T21:26:22.566Z,101386.72
2022-10-22T21:28:50.058Z,101391.59
2022-10-22T21:31:26.060Z,101384.22
2022-10-22T21:33:53.736Z,101378.75
2022-10-22T21:36:23.041Z,101383.38
2022-10-22T21:38:51.860Z,101387.78
2022-10-22T21:41:20.816Z,101388.63
2022-10-22T21:43:48.344Z,101389.72
2022-10-22T21:46:25.911Z,101404.00
2022-10-22T21:48:57.451Z,101402.09
2022-10-22T21:51:25.451Z,101402.94
2022-10-22T21:53:52.954Z,101404.63
2022-10-22T21:56:27.980Z,101402.09
2022-10-22T21:58:57.961Z,101405.66
2022-10-22T22:01:25.446Z,101400.41
2022-10-22T22:03:52.980Z,101404.00
2022-10-22T22:06:22.282Z,101408.88
2022-10-22T22:08:50.825Z,101401.72
2022-10-22T22:11:20.371Z,101403.41
2022-10-22T22:13:48.765Z,101407.81
2022-10-22T22:16:21.270Z,101410.75
2022-10-22T22:18:51.301Z,101412.69
2022-10-22T22:21:19.800Z,101406.16
2022-10-22T22:23:48.297Z,101406.16
2022-10-22T22:26:16.923Z,101399.81
2022-10-22T22:28:44.429Z,101399.81
2022-10-22T22:31:33.591Z,101407.81
2022-10-22T22:34:08.432Z,101398.53
2022-10-22T22:36:37.327Z,101404.00
2022-10-22T22:39:05.630Z,101403.16
2022-10-22T22:41:33.265Z,101399.34
2022-10-22T22:44:00.722Z,101396.63
2022-10-22T22:46:28.272Z,101393.06
2022-10-22T22:48:55.683Z,101404.84
2022-10-22T22:51:23.097Z,101401.00
2022-10-22T22:53:50.784Z,101401.88
2022-10-22T22:56:20.508Z,101391.13
2022-10-22T22:58:47.996Z,101394.47
2022-10-22T23:01:19.537Z,101397.22
2022-10-22T23:03:48.719Z,101403.53
2022-10-22T23:06:16.196Z,101391.75
2022-10-22T23:08:43.759Z,101390.91
2022-10-22T23:11:12.479Z,101399.13
2022-10-22T23:13:42.586Z,101400.19
2022-10-22T23:16:14.899Z,101398.53
2022-10-22T23:19:01.102Z,101403.16
2022-10-22T23:21:30.539Z,101397.66
2022-10-22T23:23:59.768Z,101396.84
2022-10-22T23:26:29.149Z,101401.50
2022-10-22T23:29:00.828Z,101411.63
2022-10-22T23:31:28.177Z,101403.16
2022-10-22T23:33:55.555Z,101402.53
2022-10-22T23:36:22.970Z,101406.97
2022-10-22T23:38:50.361Z,101399.81
2022-10-22T23:41:17.795Z,101404.47
2022-10-22T23:43:45.207Z,101401.72
2022-10-22T23:46:13.020Z,101408.03
2022-10-22T23:48:40.449Z,101401.72
2022-10-22T23:51:09.282Z,101404.47
2022-10-22T23:53:36.743Z,101405.28
2022-10-22T23:56:05.598Z,101397.06
2022-10-22T23:58:33.536Z,101404.22
